createdAt,value
2023-04-02T00:00:16.690Z,61.76
2023-04-02T00:03:08.895Z,64.54
2023-04-02T00:05:51.826Z,64.08
2023-04-02T00:08:29.465Z,64.49
2023-04-02T00:11:00.563Z,64.97
2023-04-02T00:13:36.447Z,64.19
2023-04-02T00:16:07.937Z,64.73
2023-04-02T00:18:43.776Z,64.05
2023-04-02T00:21:20.640Z,64.49
2023-04-02T00:23:51.263Z,63.76
2023-04-02T00:26:26.737Z,63.07
2023-04-02T00:28:56.411Z,64.79
2023-04-02T00:31:27.279Z,64.99
2023-04-02T00:33:57.072Z,64.39
2023-04-02T00:36:30.285Z,64.12
2023-04-02T00:39:03.062Z,64.27
2023-04-02T00:41:36.340Z,64.41
2023-04-02T00:44:07.081Z,64.41
2023-04-02T00:46:47.260Z,64.34
2023-04-02T00:49:24.634Z,63.80
2023-04-02T00:51:58.027Z,64.25
2023-04-02T00:54:33.983Z,64.36
2023-04-02T00:57:03.075Z,64.46
2023-04-02T00:59:35.806Z,64.37
2023-04-02T01:02:26.600Z,64.63
2023-04-02T01:04:58.299Z,63.34
2023-04-02T01:07:45.616Z,64.77
2023-04-02T01:10:41.462Z,63.73
2023-04-02T01:13:22.479Z,61.02
2023-04-02T01:15:55.635Z,62.33
2023-04-02T01:18:37.081Z,62.67
2023-04-02T01:21:23.133Z,62.28
2023-04-02T01:24:02.455Z,64.15
2023-04-02T01:26:46.817Z,62.47
2023-04-02T01:29:19.905Z,63.74
2023-04-02T01:31:52.800Z,64.08
2023-04-02T01:34:26.045Z,64.05
2023-04-02T01:37:23.136Z,63.35
2023-04-02T01:40:11.318Z,62.03
2023-04-02T01:42:48.147Z,62.53
2023-04-02T01:45:21.900Z,63.77
2023-04-02T01:47:51.566Z,63.40
2023-04-02T01:50:31.645Z,63.32
2023-04-02T01:53:03.936Z,62.07
2023-04-02T01:55:40.237Z,63.37
2023-04-02T01:58:12.578Z,63.77
2023-04-02T02:00:46.714Z,63.36
2023-04-02T02:03:17.293Z,63.09
2023-04-02T02:05:46.829Z,63.37
2023-04-02T02:08:30.346Z,63.92
2023-04-02T02:10:59.869Z,62.67
2023-04-02T02:13:28.946Z,63.21
2023-04-02T02:16:01.145Z,63.50
2023-04-02T02:18:30.809Z,63.27
2023-04-02T02:21:04.399Z,63.25
2023-04-02T02:23:33.781Z,63.11
2023-04-02T02:26:02.327Z,63.13
2023-04-02T02:28:34.694Z,62.74
2023-04-02T02:31:08.453Z,62.96
2023-04-02T02:33:43.663Z,61.49
2023-04-02T02:36:22.890Z,61.59
2023-04-02T02:38:57.686Z,62.68
2023-04-02T02:41:38.877Z,63.51
2023-04-02T02:44:17.098Z,63.06
2023-04-02T02:46:52.125Z,62.76
2023-04-02T02:49:27.615Z,63.22
2023-04-02T02:52:01.703Z,62.75
2023-04-02T02:54:42.613Z,62.54
2023-04-02T02:57:15.459Z,61.94
2023-04-02T02:59:46.949Z,62.86
2023-04-02T03:02:18.036Z,62.43
2023-04-02T03:04:51.200Z,61.04
2023-04-02T03:07:22.112Z,60.29
2023-04-02T03:10:00.385Z,61.73
2023-04-02T03:12:42.226Z,61.83
2023-04-02T03:15:19.904Z,63.35
2023-04-02T03:17:54.526Z,63.05
2023-04-02T03:20:28.398Z,62.49
2023-04-02T03:23:03.815Z,62.40
2023-04-02T03:25:39.752Z,62.92
2023-04-02T03:28:15.553Z,63.44
2023-04-02T03:30:50.742Z,63.56
2023-04-02T03:33:27.428Z,62.12
2023-04-02T03:36:04.740Z,59.87
2023-04-02T03:38:44.809Z,61.57
2023-04-02T03:41:21.270Z,62.79
2023-04-02T03:43:54.839Z,61.10
2023-04-02T03:46:28.516Z,60.74
2023-04-02T03:49:05.079Z,60.25
2023-04-02T03:51:39.322Z,60.46
2023-04-02T03:54:15.810Z,60.15
2023-04-02T03:56:47.874Z,60.74
2023-04-02T03:59:34.789Z,62.24
2023-04-02T04:02:15.900Z,63.43
2023-04-02T04:04:49.718Z,62.61
2023-04-02T04:07:24.218Z,61.92
2023-04-02T04:09:54.254Z,62.71
2023-04-02T04:12:29.978Z,62.84
2023-04-02T04:15:06.769Z,62.94
2023-04-02T04:17:51.664Z,61.71
2023-04-02T04:20:28.167Z,61.66
2023-04-02T04:23:10.975Z,62.02
2023-04-02T04:25:40.899Z,62.21
2023-04-02T04:28:25.332Z,62.50
2023-04-02T04:31:01.769Z,61.94
2023-04-02T04:33:40.999Z,62.19
2023-04-02T04:36:27.884Z,61.18
2023-04-02T04:39:08.255Z,60.15
2023-04-02T04:41:42.627Z,61.45
2023-04-02T04:44:19.172Z,61.93
2023-04-02T04:46:57.235Z,62.34
2023-04-02T04:49:32.410Z,62.29
2023-04-02T04:52:11.530Z,62.66
2023-04-02T04:54:41.356Z,61.41
2023-04-02T04:57:24.131Z,62.25
2023-04-02T04:59:59.728Z,62.24
2023-04-02T05:02:35.327Z,62.45
2023-04-02T05:05:06.148Z,61.74
2023-04-02T05:07:47.157Z,62.30
2023-04-02T05:10:24.696Z,62.90
2023-04-02T05:12:58.363Z,62.75
2023-04-02T05:15:31.402Z,62.18
2023-04-02T05:18:14.671Z,62.67
2023-04-02T05:20:49.588Z,61.69
2023-04-02T05:23:25.645Z,61.26
2023-04-02T05:25:59.939Z,60.96
2023-04-02T05:28:36.954Z,61.64
2023-04-02T05:31:12.397Z,60.85
2023-04-02T05:33:47.496Z,61.71
2023-04-02T05:36:21.904Z,60.91
2023-04-02T05:38:57.562Z,59.65
2023-04-02T05:41:44.604Z,59.99
2023-04-02T05:44:22.522Z,60.16
2023-04-02T05:46:58.294Z,58.67
2023-04-02T05:49:36.739Z,60.10
2023-04-02T05:52:09.697Z,58.57
2023-04-02T05:54:45.730Z,58.60
2023-04-02T05:57:27.067Z,59.22
2023-04-02T06:00:06.921Z,60.69
2023-04-02T06:02:53.230Z,59.52
2023-04-02T06:05:27.640Z,59.32
2023-04-02T06:08:02.650Z,58.75
2023-04-02T06:10:36.672Z,57.83
2023-04-02T06:13:08.944Z,57.06
2023-04-02T06:15:41.826Z,57.11
2023-04-02T06:18:23.275Z,58.40
2023-04-02T06:20:53.578Z,58.61
2023-04-02T06:23:25.647Z,58.68
2023-04-02T06:26:02.904Z,58.48
2023-04-02T06:28:39.293Z,57.97
2023-04-02T06:31:14.781Z,58.79
2023-04-02T06:33:44.736Z,59.03
2023-04-02T06:36:16.261Z,57.58
2023-04-02T06:38:46.453Z,57.75
2023-04-02T06:41:22.065Z,55.17
2023-04-02T06:44:16.918Z,57.06
2023-04-02T06:47:05.968Z,56.29
2023-04-02T06:49:41.107Z,57.04
2023-04-02T06:52:18.195Z,53.89
2023-04-02T06:54:48.330Z,55.45
2023-04-02T06:57:19.605Z,56.42
2023-04-02T06:59:51.063Z,54.94
2023-04-02T07:02:33.963Z,52.74
2023-04-02T07:05:09.253Z,55.51
2023-04-02T07:07:41.703Z,57.00
2023-04-02T07:10:13.401Z,57.17
2023-04-02T07:12:43.715Z,52.93
2023-04-02T07:15:16.872Z,55.85
2023-04-02T07:17:46.004Z,56.40
2023-04-02T07:20:27.217Z,54.96
2023-04-02T07:22:57.091Z,54.84
2023-04-02T07:25:27.672Z,53.04
2023-04-02T07:27:58.012Z,50.49
2023-04-02T07:30:26.936Z,53.71
2023-04-02T07:32:55.757Z,54.91
2023-04-02T07:35:24.961Z,53.42
2023-04-02T07:37:53.697Z,55.46
2023-04-02T07:40:24.294Z,56.62
2023-04-02T07:42:53.016Z,55.79
2023-04-02T07:45:23.452Z,56.98
2023-04-02T07:47:52.340Z,53.01
2023-04-02T07:50:21.707Z,53.65
2023-04-02T07:52:50.364Z,50.71
2023-04-02T07:55:19.420Z,52.60
2023-04-02T07:57:53.704Z,51.18
2023-04-02T08:00:24.821Z,51.81
2023-04-02T08:02:54.336Z,51.37
2023-04-02T08:05:23.546Z,53.24
2023-04-02T08:07:56.887Z,51.77
2023-04-02T08:10:26.485Z,48.32
2023-04-02T08:12:55.260Z,51.42
2023-04-02T08:15:25.728Z,54.89
2023-04-02T08:17:55.043Z,50.36
2023-04-02T08:20:24.712Z,52.88
2023-04-02T08:22:53.500Z,54.29
2023-04-02T08:25:22.468Z,54.22
2023-04-02T08:27:51.403Z,51.55
2023-04-02T08:30:20.944Z,52.17
2023-04-02T08:32:51.105Z,52.47
2023-04-02T08:35:20.167Z,50.92
2023-04-02T08:37:48.786Z,50.73
2023-04-02T08:40:24.249Z,53.12
2023-04-02T08:43:07.010Z,52.43
2023-04-02T08:45:51.698Z,52.00
2023-04-02T08:48:23.451Z,53.82
2023-04-02T08:50:52.864Z,53.20
2023-04-02T08:53:24.262Z,52.31
2023-04-02T08:56:00.042Z,54.01
2023-04-02T08:58:41.430Z,54.56
2023-04-02T09:01:22.695Z,55.03
2023-04-02T09:03:57.051Z,55.24
2023-04-02T09:06:26.338Z,53.75
2023-04-02T09:08:56.491Z,52.94
2023-04-02T09:11:28.901Z,54.22
2023-04-02T09:14:00.311Z,51.74
2023-04-02T09:16:52.414Z,52.69
2023-04-02T09:19:26.487Z,52.14
2023-04-02T09:22:07.718Z,53.35
2023-04-02T09:24:37.700Z,51.92
2023-04-02T09:27:19.496Z,50.71
2023-04-02T09:29:50.202Z,49.28
2023-04-02T09:32:49.765Z,51.07
2023-04-02T09:35:39.196Z,50.71
2023-04-02T09:38:21.703Z,50.10
2023-04-02T09:40:59.363Z,49.97
2023-04-02T09:43:30.688Z,49.55
2023-04-02T09:46:02.388Z,50.23
2023-04-02T09:48:35.442Z,49.01
2023-04-02T09:51:15.530Z,48.54
2023-04-02T09:53:46.040Z,48.21
2023-04-02T09:56:17.472Z,48.79
2023-04-02T09:59:02.494Z,47.35
2023-04-02T10:01:33.875Z,48.45
2023-04-02T10:04:05.313Z,48.53
2023-04-02T10:06:36.479Z,48.65
2023-04-02T10:09:22.562Z,49.14
2023-04-02T10:11:53.007Z,49.50
2023-04-02T10:14:28.189Z,48.21
2023-04-02T10:16:59.100Z,48.81
2023-04-02T10:19:33.811Z,48.93
2023-04-02T10:22:07.306Z,49.52
2023-04-02T10:24:36.480Z,48.37
2023-04-02T10:27:18.026Z,49.30
2023-04-02T10:30:04.106Z,49.67
2023-04-02T10:32:41.064Z,49.20
2023-04-02T10:35:18.930Z,49.27
2023-04-02T10:38:02.589Z,50.11
2023-04-02T10:40:36.619Z,50.18
2023-04-02T10:43:39.147Z,50.33
2023-04-02T10:46:16.166Z,50.10
2023-04-02T10:48:53.636Z,48.05
2023-04-02T10:51:39.541Z,49.29
2023-04-02T10:54:27.954Z,47.17
2023-04-02T10:57:06.803Z,47.48
2023-04-02T10:59:39.994Z,46.50
2023-04-02T11:02:27.402Z,46.67
2023-04-02T11:04:58.532Z,47.75
2023-04-02T11:07:37.919Z,48.37
2023-04-02T11:10:09.230Z,48.00
2023-04-02T11:12:46.066Z,47.47
2023-04-02T11:15:18.147Z,47.99
2023-04-02T11:17:48.534Z,45.73
2023-04-02T11:21:00.033Z,44.71
2023-04-02T11:23:31.681Z,46.59
2023-04-02T11:26:37.485Z,46.35
2023-04-02T11:29:17.894Z,46.00
2023-04-02T11:31:47.395Z,45.58
2023-04-02T11:34:37.976Z,44.73
2023-04-02T11:37:10.670Z,43.19
2023-04-02T11:39:59.354Z,44.41
2023-04-02T11:42:32.156Z,44.12
2023-04-02T11:45:23.621Z,42.85
2023-04-02T11:48:30.035Z,44.11
2023-04-02T11:50:59.619Z,44.48
2023-04-02T11:53:34.222Z,42.90
2023-04-02T11:56:23.890Z,40.60
2023-04-02T11:59:07.645Z,39.80
2023-04-02T12:01:51.883Z,39.27
2023-04-02T12:04:36.111Z,39.78
2023-04-02T12:07:52.395Z,39.34
2023-04-02T12:10:23.289Z,40.59
2023-04-02T12:12:52.886Z,41.09
2023-04-02T12:15:46.205Z,39.61
2023-04-02T12:18:18.508Z,38.28
2023-04-02T12:20:50.862Z,39.82
2023-04-02T12:23:23.104Z,39.12
2023-04-02T12:25:58.504Z,40.62
2023-04-02T12:28:30.100Z,40.95
2023-04-02T12:31:14.442Z,40.80
2023-04-02T12:33:44.622Z,40.10
2023-04-02T12:36:22.427Z,37.96
2023-04-02T12:38:53.720Z,40.46
2023-04-02T12:41:30.112Z,40.47
2023-04-02T12:44:00.571Z,42.32
2023-04-02T12:46:32.510Z,42.67
2023-04-02T12:49:06.728Z,41.95
2023-04-02T12:51:37.518Z,40.75
2023-04-02T12:54:07.351Z,41.48
2023-04-02T12:56:36.625Z,42.10
2023-04-02T12:59:05.743Z,43.73
2023-04-02T13:01:36.013Z,46.17
2023-04-02T13:04:07.277Z,48.02
2023-04-02T13:06:37.585Z,49.12
2023-04-02T13:09:08.813Z,48.61
2023-04-02T13:11:40.419Z,49.14
2023-04-02T13:14:20.006Z,49.75
2023-04-02T13:16:50.121Z,50.92
2023-04-02T13:19:29.073Z,49.99
2023-04-02T13:21:59.132Z,49.06
2023-04-02T13:24:29.677Z,49.71
2023-04-02T13:27:01.107Z,50.28
2023-04-02T13:29:31.728Z,50.62
2023-04-02T13:32:03.900Z,50.92
2023-04-02T13:34:33.135Z,49.70
2023-04-02T13:37:01.930Z,49.70
2023-04-02T13:39:31.617Z,49.21
2023-04-02T13:42:04.165Z,48.95
2023-04-02T13:44:35.962Z,49.55
2023-04-02T13:47:06.589Z,48.84
2023-04-02T13:49:35.959Z,48.41
2023-04-02T13:52:05.447Z,47.13
2023-04-02T13:54:42.546Z,48.78
2023-04-02T13:57:11.751Z,48.38
2023-04-02T13:59:40.905Z,48.04
2023-04-02T14:02:15.059Z,46.92
2023-04-02T14:04:50.754Z,47.26
2023-04-02T14:07:39.389Z,47.29
2023-04-02T14:10:23.936Z,46.68
2023-04-02T14:13:11.801Z,47.40
2023-04-02T14:15:55.190Z,45.44
2023-04-02T14:18:45.547Z,47.85
2023-04-02T14:21:26.633Z,47.57
2023-04-02T14:24:18.391Z,48.59
2023-04-02T14:26:59.138Z,49.08
2023-04-02T14:29:36.410Z,47.96
2023-04-02T14:32:10.903Z,48.21
2023-04-02T14:34:50.032Z,47.33
2023-04-02T14:37:26.730Z,46.07
2023-04-02T14:40:07.646Z,48.69
2023-04-02T14:42:45.435Z,50.46
2023-04-02T14:45:24.137Z,48.57
2023-04-02T14:47:59.671Z,47.67
2023-04-02T14:50:33.100Z,46.71
2023-04-02T14:53:08.722Z,48.58
2023-04-02T14:55:42.846Z,48.17
2023-04-02T14:58:19.461Z,47.25
2023-04-02T15:00:56.271Z,47.25
2023-04-02T15:03:30.103Z,44.59
2023-04-02T15:06:03.072Z,44.80
2023-04-02T15:08:38.087Z,44.85
2023-04-02T15:11:13.352Z,46.34
2023-04-02T15:13:47.150Z,45.43
2023-04-02T15:16:20.488Z,46.21
2023-04-02T15:18:52.917Z,44.97
2023-04-02T15:21:55.874Z,45.19
2023-04-02T15:24:38.582Z,44.91
2023-04-02T15:27:25.638Z,45.38
2023-04-02T15:30:01.523Z,44.79
2023-04-02T15:32:37.323Z,44.28
2023-04-02T15:35:17.743Z,43.65
2023-04-02T15:37:59.556Z,43.03
2023-04-02T15:40:41.145Z,43.42
2023-04-02T15:43:19.917Z,43.68
2023-04-02T15:46:12.002Z,45.70
2023-04-02T15:49:06.613Z,47.51
2023-04-02T15:51:48.379Z,47.55
2023-04-02T15:54:33.300Z,48.38
2023-04-02T15:57:17.880Z,47.99
2023-04-02T16:00:11.586Z,47.61
2023-04-02T16:03:02.677Z,46.63
2023-04-02T16:05:41.024Z,45.77
2023-04-02T16:08:25.912Z,45.74
2023-04-02T16:10:56.120Z,45.02
2023-04-02T16:13:30.673Z,45.62
2023-04-02T16:16:05.524Z,46.15
2023-04-02T16:18:44.048Z,44.94
2023-04-02T16:21:19.356Z,46.10
2023-04-02T16:23:48.507Z,46.35
2023-04-02T16:26:50.070Z,45.56
2023-04-02T16:29:51.197Z,45.94
2023-04-02T16:32:44.109Z,46.36
2023-04-02T16:38:14.030Z,47.66
2023-04-02T16:41:04.744Z,49.15
2023-04-02T16:43:50.925Z,47.76
2023-04-02T16:46:38.860Z,47.83
2023-04-02T16:49:20.088Z,47.88
2023-04-02T16:52:02.290Z,47.64
2023-04-02T16:54:37.399Z,48.23
2023-04-02T16:57:24.834Z,47.75
2023-04-02T17:00:03.928Z,49.05
2023-04-02T17:02:48.418Z,49.02
2023-04-02T17:05:30.552Z,48.71
2023-04-02T17:08:12.169Z,48.60
2023-04-02T17:10:51.821Z,49.37
2023-04-02T17:13:28.134Z,49.52
2023-04-02T17:16:07.029Z,49.20
2023-04-02T17:18:36.692Z,49.62
2023-04-02T17:21:08.639Z,48.98
2023-04-02T17:23:55.876Z,48.06
2023-04-02T17:26:28.812Z,50.15
2023-04-02T17:29:00.143Z,51.02
2023-04-02T17:31:35.419Z,50.84
2023-04-02T17:34:13.532Z,50.25
2023-04-02T17:36:48.315Z,49.69
2023-04-02T17:39:23.211Z,50.55
2023-04-02T17:42:00.094Z,50.87
2023-04-02T17:44:44.279Z,52.01
2023-04-02T17:47:20.715Z,50.96
2023-04-02T17:49:58.801Z,49.54
2023-04-02T17:52:36.626Z,50.63
2023-04-02T17:55:19.744Z,51.66
2023-04-02T17:58:05.192Z,50.70
2023-04-02T18:00:46.093Z,51.02
2023-04-02T18:03:47.655Z,51.00
2023-04-02T18:06:22.185Z,51.15
2023-04-02T18:09:20.378Z,51.19
2023-04-02T18:12:00.538Z,51.23
2023-04-02T18:14:43.819Z,51.46
2023-04-02T18:17:20.716Z,51.62
2023-04-02T18:19:58.815Z,51.28
2023-04-02T18:22:37.452Z,50.92
2023-04-02T18:25:32.773Z,51.19
2023-04-02T18:28:22.900Z,50.58
2023-04-02T18:30:59.794Z,50.98
2023-04-02T18:33:51.351Z,52.08
2023-04-02T18:36:31.207Z,52.96
2023-04-02T18:39:03.499Z,52.73
2023-04-02T18:41:45.048Z,52.19
2023-04-02T18:44:31.482Z,51.46
2023-04-02T18:47:11.763Z,51.94
2023-04-02T18:49:47.710Z,52.48
2023-04-02T18:52:20.528Z,52.74
2023-04-02T18:54:53.075Z,52.73
2023-04-02T18:57:27.267Z,51.92
2023-04-02T19:00:00.941Z,51.58
2023-04-02T19:02:54.418Z,51.82
2023-04-02T19:05:26.790Z,51.12
2023-04-02T19:08:04.007Z,50.26
2023-04-02T19:10:36.822Z,50.07
2023-04-02T19:13:13.907Z,50.00
2023-04-02T19:15:59.368Z,49.54
2023-04-02T19:18:40.021Z,52.19
2023-04-02T19:21:22.007Z,53.37
2023-04-02T19:24:04.170Z,54.79
2023-04-02T19:26:41.503Z,55.74
2023-04-02T19:29:25.255Z,55.18
2023-04-02T19:32:05.570Z,55.09
2023-04-02T19:34:41.015Z,55.75
2023-04-02T19:37:18.087Z,56.46
2023-04-02T19:40:12.885Z,56.38
2023-04-02T19:42:47.164Z,55.50
2023-04-02T19:45:30.354Z,55.03
2023-04-02T19:48:02.076Z,56.04
2023-04-02T19:50:31.029Z,55.37
2023-04-02T19:52:59.976Z,55.79
2023-04-02T19:55:30.642Z,57.05
2023-04-02T19:58:12.570Z,56.39
2023-04-02T20:00:46.282Z,56.84
2023-04-02T20:03:15.218Z,55.92
2023-04-02T20:05:44.271Z,56.76
2023-04-02T20:08:13.928Z,56.62
2023-04-02T20:10:44.453Z,56.27
2023-04-02T20:13:14.078Z,56.51
2023-04-02T20:15:42.677Z,54.67
2023-04-02T20:18:11.846Z,56.43
2023-04-02T20:20:40.510Z,55.01
2023-04-02T20:23:09.504Z,54.14
2023-04-02T20:25:38.213Z,53.35
2023-04-02T20:28:08.573Z,52.71
2023-04-02T20:30:37.886Z,51.93
2023-04-02T20:33:07.414Z,52.03
2023-04-02T20:35:37.758Z,51.31
2023-04-02T20:38:08.301Z,51.63
2023-04-02T20:40:37.010Z,51.88
2023-04-02T20:43:06.276Z,53.92
2023-04-02T20:45:37.259Z,53.91
2023-04-02T20:48:06.851Z,52.92
2023-04-02T20:50:35.729Z,52.92
2023-04-02T20:53:04.904Z,53.30
2023-04-02T20:55:33.639Z,52.81
2023-04-02T20:58:02.718Z,52.42
2023-04-02T21:00:31.442Z,52.20
2023-04-02T21:03:02.060Z,52.28
2023-04-02T21:05:30.870Z,52.46
2023-04-02T21:07:59.940Z,51.83
2023-04-02T21:10:28.938Z,51.11
2023-04-02T21:12:57.879Z,51.34
2023-04-02T21:15:26.674Z,50.20
2023-04-02T21:17:56.245Z,50.55
2023-04-02T21:20:27.092Z,49.75
2023-04-02T21:22:56.343Z,50.24
2023-04-02T21:25:25.039Z,50.12
2023-04-02T21:27:54.252Z,49.78
2023-04-02T21:30:23.004Z,49.83
2023-04-02T21:32:52.158Z,49.91
2023-04-02T21:35:20.895Z,49.83
2023-04-02T21:37:51.692Z,49.90
2023-04-02T21:40:20.700Z,49.93
2023-04-02T21:42:49.673Z,50.55
2023-04-02T21:45:18.287Z,49.92
2023-04-02T21:47:47.232Z,50.15
2023-04-02T21:50:16.318Z,50.17
2023-04-02T21:52:46.033Z,50.66
2023-04-02T21:55:16.156Z,50.17
2023-04-02T21:57:45.303Z,50.27
2023-04-02T22:00:15.761Z,50.30
2023-04-02T22:02:44.789Z,49.77
2023-04-02T22:05:13.528Z,50.26
2023-04-02T22:07:42.537Z,49.99
2023-04-02T22:10:11.892Z,50.25
2023-04-02T22:12:42.287Z,50.48
2023-04-02T22:15:11.966Z,50.08
2023-04-02T22:17:40.853Z,50.02
2023-04-02T22:20:10.918Z,49.56
2023-04-02T22:22:40.180Z,49.88
2023-04-02T22:25:09.900Z,49.65
2023-04-02T22:27:38.998Z,49.43
2023-04-02T22:30:10.641Z,49.66
2023-04-02T22:32:40.305Z,50.17
2023-04-02T22:35:09.481Z,49.36
2023-04-02T22:37:38.444Z,49.80
2023-04-02T22:40:08.037Z,50.53
2023-04-02T22:42:38.391Z,50.21
2023-04-02T22:45:09.449Z,50.25
2023-04-02T22:47:38.647Z,51.56
2023-04-02T22:50:08.382Z,53.18
2023-04-02T22:52:37.344Z,54.18
2023-04-02T22:55:07.994Z,53.31
2023-04-02T22:57:37.037Z,54.20
2023-04-02T23:00:12.405Z,53.58
2023-04-02T23:02:41.830Z,52.70
2023-04-02T23:05:11.933Z,52.89
2023-04-02T23:07:41.262Z,52.15
2023-04-02T23:10:10.576Z,52.20
2023-04-02T23:12:39.546Z,51.85
2023-04-02T23:15:11.156Z,52.35
2023-04-02T23:17:40.151Z,52.51
2023-04-02T23:20:09.844Z,52.66
2023-04-02T23:22:38.923Z,53.06
2023-04-02T23:25:09.926Z,53.63
2023-04-02T23:27:39.235Z,54.73
2023-04-02T23:30:10.903Z,57.89
2023-04-02T23:32:40.057Z,55.92
2023-04-02T23:35:09.216Z,55.55
2023-04-02T23:37:38.258Z,56.83
2023-04-02T23:40:08.673Z,56.47
2023-04-02T23:42:37.650Z,57.41
2023-04-02T23:45:10.443Z,56.94
2023-04-02T23:47:39.241Z,57.32
2023-04-02T23:50:08.839Z,57.42
2023-04-02T23:52:37.630Z,58.04
2023-04-02T23:55:06.971Z,61.55
2023-04-02T23:57:35.968Z,63.88
